sensor_id;sensor_type;location;lat;lon;timestamp;P1;durP1;ratioP1;P2;durP2;ratioP2
11616;SDS011;5864;52.998;9.068;2022-08-19T00:00:23;4.67;;;3.40;;
11616;SDS011;5864;52.998;9.068;2022-08-19T00:02:50;6.07;;;3.80;;
11616;SDS011;5864;52.998;9.068;2022-08-19T00:05:18;6.50;;;3.63;;
11616;SDS011;5864;52.998;9.068;2022-08-19T00:07:46;3.90;;;3.60;;
11616;SDS011;5864;52.998;9.068;2022-08-19T00:10:14;3.60;;;3.30;;
11616;SDS011;5864;52.998;9.068;2022-08-19T00:12:44;4.63;;;3.63;;
11616;SDS011;5864;52.998;9.068;2022-08-19T00:15:14;3.43;;;3.10;;
11616;SDS011;5864;52.998;9.068;2022-08-19T00:17:43;5.47;;;3.63;;
11616;SDS011;5864;52.998;9.068;2022-08-19T00:20:12;5.57;;;3.40;;
11616;SDS011;5864;52.998;9.068;2022-08-19T00:22:42;5.73;;;3.83;;
11616;SDS011;5864;52.998;9.068;2022-08-19T00:25:10;5.23;;;3.53;;
11616;SDS011;5864;52.998;9.068;2022-08-19T00:27:38;4.63;;;3.23;;
11616;SDS011;5864;52.998;9.068;2022-08-19T00:30:07;4.70;;;3.53;;
11616;SDS011;5864;52.998;9.068;2022-08-19T00:32:39;5.50;;;3.47;;
11616;SDS011;5864;52.998;9.068;2022-08-19T00:35:07;4.37;;;3.27;;
11616;SDS011;5864;52.998;9.068;2022-08-19T00:37:36;4.27;;;3.23;;
11616;SDS011;5864;52.998;9.068;2022-08-19T00:40:05;4.33;;;3.70;;
11616;SDS011;5864;52.998;9.068;2022-08-19T00:42:34;7.47;;;4.77;;
11616;SDS011;5864;52.998;9.068;2022-08-19T00:45:03;6.23;;;4.60;;
11616;SDS011;5864;52.998;9.068;2022-08-19T00:47:40;6.23;;;4.30;;
11616;SDS011;5864;52.998;9.068;2022-08-19T00:50:08;5.60;;;3.97;;
11616;SDS011;5864;52.998;9.068;2022-08-19T00:52:38;6.43;;;4.33;;
11616;SDS011;5864;52.998;9.068;2022-08-19T00:55:12;5.10;;;4.40;;
11616;SDS011;5864;52.998;9.068;2022-08-19T00:57:44;7.13;;;5.20;;
11616;SDS011;5864;52.998;9.068;2022-08-19T01:00:18;7.17;;;5.43;;
11616;SDS011;5864;52.998;9.068;2022-08-19T01:02:46;7.50;;;4.87;;
11616;SDS011;5864;52.998;9.068;2022-08-19T01:05:14;7.07;;;4.97;;
11616;SDS011;5864;52.998;9.068;2022-08-19T01:07:46;7.50;;;5.90;;
11616;SDS011;5864;52.998;9.068;2022-08-19T01:10:16;7.10;;;6.40;;
11616;SDS011;5864;52.998;9.068;2022-08-19T01:12:47;6.97;;;5.93;;
11616;SDS011;5864;52.998;9.068;2022-08-19T01:15:19;5.80;;;5.20;;
11616;SDS011;5864;52.998;9.068;2022-08-19T01:17:49;8.03;;;5.10;;
11616;SDS011;5864;52.998;9.068;2022-08-19T01:20:19;8.53;;;5.23;;
11616;SDS011;5864;52.998;9.068;2022-08-19T01:22:50;7.73;;;5.63;;
11616;SDS011;5864;52.998;9.068;2022-08-19T01:25:20;5.70;;;4.43;;
11616;SDS011;5864;52.998;9.068;2022-08-19T01:27:51;6.67;;;4.93;;
11616;SDS011;5864;52.998;9.068;2022-08-19T01:30:20;5.77;;;5.13;;
11616;SDS011;5864;52.998;9.068;2022-08-19T01:32:50;5.40;;;4.70;;
11616;SDS011;5864;52.998;9.068;2022-08-19T01:35:18;7.80;;;5.50;;
11616;SDS011;5864;52.998;9.068;2022-08-19T01:37:47;7.67;;;5.57;;
11616;SDS011;5864;52.998;9.068;2022-08-19T01:40:18;5.30;;;4.80;;
11616;SDS011;5864;52.998;9.068;2022-08-19T01:42:47;6.10;;;5.50;;
11616;SDS011;5864;52.998;9.068;2022-08-19T01:45:15;6.23;;;5.57;;
11616;SDS011;5864;52.998;9.068;2022-08-19T01:47:43;10.57;;;6.73;;
11616;SDS011;5864;52.998;9.068;2022-08-19T01:50:11;7.67;;;6.23;;
11616;SDS011;5864;52.998;9.068;2022-08-19T01:52:39;8.97;;;6.50;;
11616;SDS011;5864;52.998;9.068;2022-08-19T01:55:10;7.70;;;6.27;;
11616;SDS011;5864;52.998;9.068;2022-08-19T01:57:41;6.87;;;6.17;;
11616;SDS011;5864;52.998;9.068;2022-08-19T02:00:12;7.10;;;6.40;;
11616;SDS011;5864;52.998;9.068;2022-08-19T02:02:42;7.80;;;6.50;;
11616;SDS011;5864;52.998;9.068;2022-08-19T02:05:09;9.53;;;8.53;;
11616;SDS011;5864;52.998;9.068;2022-08-19T02:07:38;9.83;;;8.23;;
11616;SDS011;5864;52.998;9.068;2022-08-19T02:10:07;7.73;;;6.93;;
11616;SDS011;5864;52.998;9.068;2022-08-19T02:12:38;10.47;;;8.13;;
11616;SDS011;5864;52.998;9.068;2022-08-19T02:15:06;8.70;;;7.10;;
11616;SDS011;5864;52.998;9.068;2022-08-19T02:17:34;9.93;;;8.13;;
11616;SDS011;5864;52.998;9.068;2022-08-19T02:20:02;9.80;;;8.10;;
11616;SDS011;5864;52.998;9.068;2022-08-19T02:22:31;9.33;;;7.70;;
11616;SDS011;5864;52.998;9.068;2022-08-19T02:25:00;9.03;;;6.60;;
11616;SDS011;5864;52.998;9.068;2022-08-19T02:27:31;11.50;;;8.50;;
11616;SDS011;5864;52.998;9.068;2022-08-19T02:29:59;8.60;;;6.47;;
11616;SDS011;5864;52.998;9.068;2022-08-19T02:32:27;9.47;;;7.13;;
11616;SDS011;5864;52.998;9.068;2022-08-19T02:34:55;7.10;;;6.20;;
11616;SDS011;5864;52.998;9.068;2022-08-19T02:37:23;9.30;;;7.40;;
11616;SDS011;5864;52.998;9.068;2022-08-19T02:40:08;8.90;;;6.37;;
11616;SDS011;5864;52.998;9.068;2022-08-19T02:42:37;8.13;;;6.17;;
11616;SDS011;5864;52.998;9.068;2022-08-19T02:45:06;8.13;;;6.83;;
11616;SDS011;5864;52.998;9.068;2022-08-19T02:47:34;8.93;;;6.27;;
11616;SDS011;5864;52.998;9.068;2022-08-19T02:50:02;8.20;;;6.37;;
11616;SDS011;5864;52.998;9.068;2022-08-19T02:52:31;9.40;;;6.60;;
11616;SDS011;5864;52.998;9.068;2022-08-19T02:54:59;6.20;;;5.20;;
11616;SDS011;5864;52.998;9.068;2022-08-19T02:57:26;6.30;;;5.20;;
11616;SDS011;5864;52.998;9.068;2022-08-19T02:59:58;7.23;;;5.30;;
11616;SDS011;5864;52.998;9.068;2022-08-19T03:02:27;7.43;;;4.70;;
11616;SDS011;5864;52.998;9.068;2022-08-19T03:04:56;8.07;;;5.57;;
11616;SDS011;5864;52.998;9.068;2022-08-19T03:07:23;8.03;;;6.03;;
11616;SDS011;5864;52.998;9.068;2022-08-19T03:09:51;6.73;;;4.83;;
11616;SDS011;5864;52.998;9.068;2022-08-19T03:12:18;6.17;;;5.30;;
11616;SDS011;5864;52.998;9.068;2022-08-19T03:14:45;8.13;;;4.97;;
11616;SDS011;5864;52.998;9.068;2022-08-19T03:17:14;7.73;;;5.20;;
11616;SDS011;5864;52.998;9.068;2022-08-19T03:19:42;6.67;;;4.60;;
11616;SDS011;5864;52.998;9.068;2022-08-19T03:22:09;7.47;;;4.80;;
11616;SDS011;5864;52.998;9.068;2022-08-19T03:24:37;5.10;;;4.10;;
11616;SDS011;5864;52.998;9.068;2022-08-19T03:27:05;5.87;;;4.20;;
11616;SDS011;5864;52.998;9.068;2022-08-19T03:29:33;6.07;;;4.00;;
11616;SDS011;5864;52.998;9.068;2022-08-19T03:32:05;6.33;;;4.20;;
11616;SDS011;5864;52.998;9.068;2022-08-19T03:34:36;5.30;;;4.30;;
11616;SDS011;5864;52.998;9.068;2022-08-19T03:37:05;6.07;;;4.30;;
11616;SDS011;5864;52.998;9.068;2022-08-19T03:39:35;6.13;;;4.60;;
11616;SDS011;5864;52.998;9.068;2022-08-19T03:42:04;6.17;;;5.30;;
11616;SDS011;5864;52.998;9.068;2022-08-19T03:44:32;5.67;;;4.60;;
11616;SDS011;5864;52.998;9.068;2022-08-19T03:47:01;6.17;;;5.30;;
11616;SDS011;5864;52.998;9.068;2022-08-19T03:49:30;6.70;;;5.43;;
11616;SDS011;5864;52.998;9.068;2022-08-19T03:52:02;7.50;;;5.73;;
11616;SDS011;5864;52.998;9.068;2022-08-19T03:54:32;6.13;;;5.53;;
11616;SDS011;5864;52.998;9.068;2022-08-19T03:57:00;7.00;;;6.30;;
11616;SDS011;5864;52.998;9.068;2022-08-19T03:59:30;7.60;;;6.00;;
11616;SDS011;5864;52.998;9.068;2022-08-19T04:02:01;8.33;;;6.00;;
11616;SDS011;5864;52.998;9.068;2022-08-19T04:04:34;6.50;;;5.90;;
11616;SDS011;5864;52.998;9.068;2022-08-19T04:07:04;7.77;;;6.63;;
11616;SDS011;5864;52.998;9.068;2022-08-19T04:09:33;11.20;;;8.00;;
11616;SDS011;5864;52.998;9.068;2022-08-19T04:12:02;9.67;;;8.00;;
11616;SDS011;5864;52.998;9.068;2022-08-19T04:14:31;8.67;;;7.77;;
11616;SDS011;5864;52.998;9.068;2022-08-19T04:16:59;11.03;;;9.17;;
11616;SDS011;5864;52.998;9.068;2022-08-19T04:19:30;14.30;;;10.50;;
11616;SDS011;5864;52.998;9.068;2022-08-19T04:21:58;8.57;;;7.70;;
11616;SDS011;5864;52.998;9.068;2022-08-19T04:24:27;10.20;;;8.27;;
11616;SDS011;5864;52.998;9.068;2022-08-19T04:26:54;12.77;;;9.73;;
11616;SDS011;5864;52.998;9.068;2022-08-19T04:29:24;11.70;;;9.40;;
11616;SDS011;5864;52.998;9.068;2022-08-19T04:31:53;11.00;;;9.30;;
11616;SDS011;5864;52.998;9.068;2022-08-19T04:34:22;10.73;;;9.07;;
11616;SDS011;5864;52.998;9.068;2022-08-19T04:36:51;9.97;;;8.50;;
11616;SDS011;5864;52.998;9.068;2022-08-19T04:39:21;10.60;;;9.30;;
11616;SDS011;5864;52.998;9.068;2022-08-19T04:42:11;13.27;;;9.87;;
11616;SDS011;5864;52.998;9.068;2022-08-19T04:44:57;14.07;;;10.13;;
11616;SDS011;5864;52.998;9.068;2022-08-19T04:47:25;10.40;;;9.37;;
11616;SDS011;5864;52.998;9.068;2022-08-19T04:49:52;10.60;;;9.37;;
11616;SDS011;5864;52.998;9.068;2022-08-19T04:52:20;11.17;;;9.10;;
11616;SDS011;5864;52.998;9.068;2022-08-19T04:54:47;12.47;;;9.50;;
11616;SDS011;5864;52.998;9.068;2022-08-19T04:57:16;10.93;;;8.57;;
11616;SDS011;5864;52.998;9.068;2022-08-19T04:59:43;13.73;;;9.83;;
11616;SDS011;5864;52.998;9.068;2022-08-19T05:02:11;13.53;;;10.33;;
11616;SDS011;5864;52.998;9.068;2022-08-19T05:04:38;10.67;;;8.73;;
11616;SDS011;5864;52.998;9.068;2022-08-19T05:07:06;10.07;;;9.07;;
11616;SDS011;5864;52.998;9.068;2022-08-19T05:09:35;11.97;;;9.27;;
11616;SDS011;5864;52.998;9.068;2022-08-19T05:12:03;12.67;;;9.97;;
11616;SDS011;5864;52.998;9.068;2022-08-19T05:14:32;11.43;;;9.93;;
11616;SDS011;5864;52.998;9.068;2022-08-19T05:17:02;15.00;;;10.43;;
11616;SDS011;5864;52.998;9.068;2022-08-19T05:19:29;10.53;;;9.43;;
11616;SDS011;5864;52.998;9.068;2022-08-19T05:22:14;9.73;;;8.13;;
11616;SDS011;5864;52.998;9.068;2022-08-19T05:25:02;11.17;;;9.03;;
11616;SDS011;5864;52.998;9.068;2022-08-19T05:27:31;10.10;;;9.03;;
11616;SDS011;5864;52.998;9.068;2022-08-19T05:30:00;12.13;;;10.53;;
11616;SDS011;5864;52.998;9.068;2022-08-19T05:32:28;10.37;;;9.37;;
11616;SDS011;5864;52.998;9.068;2022-08-19T05:34:56;13.20;;;11.10;;
11616;SDS011;5864;52.998;9.068;2022-08-19T05:37:24;12.43;;;11.03;;
11616;SDS011;5864;52.998;9.068;2022-08-19T05:39:52;14.40;;;10.33;;
11616;SDS011;5864;52.998;9.068;2022-08-19T05:42:21;14.90;;;12.63;;
11616;SDS011;5864;52.998;9.068;2022-08-19T05:44:49;17.57;;;14.10;;
11616;SDS011;5864;52.998;9.068;2022-08-19T05:47:18;16.40;;;11.27;;
11616;SDS011;5864;52.998;9.068;2022-08-19T05:49:46;12.80;;;11.37;;
11616;SDS011;5864;52.998;9.068;2022-08-19T05:52:15;12.80;;;10.90;;
11616;SDS011;5864;52.998;9.068;2022-08-19T05:54:43;13.80;;;10.83;;
11616;SDS011;5864;52.998;9.068;2022-08-19T05:57:13;12.57;;;10.43;;
11616;SDS011;5864;52.998;9.068;2022-08-19T05:59:41;11.63;;;9.10;;
11616;SDS011;5864;52.998;9.068;2022-08-19T06:02:09;12.50;;;11.07;;
11616;SDS011;5864;52.998;9.068;2022-08-19T06:04:38;11.37;;;10.17;;
11616;SDS011;5864;52.998;9.068;2022-08-19T06:07:08;10.63;;;9.57;;
11616;SDS011;5864;52.998;9.068;2022-08-19T06:09:36;12.27;;;7.57;;
11616;SDS011;5864;52.998;9.068;2022-08-19T06:12:04;11.67;;;7.87;;
11616;SDS011;5864;52.998;9.068;2022-08-19T06:14:32;9.00;;;7.80;;
11616;SDS011;5864;52.998;9.068;2022-08-19T06:17:02;8.87;;;6.90;;
11616;SDS011;5864;52.998;9.068;2022-08-19T06:19:30;7.63;;;6.40;;
11616;SDS011;5864;52.998;9.068;2022-08-19T06:21:59;6.97;;;6.20;;
11616;SDS011;5864;52.998;9.068;2022-08-19T06:24:27;5.60;;;5.03;;
11616;SDS011;5864;52.998;9.068;2022-08-19T06:26:56;5.50;;;4.97;;
11616;SDS011;5864;52.998;9.068;2022-08-19T06:29:25;5.40;;;4.90;;
11616;SDS011;5864;52.998;9.068;2022-08-19T06:31:54;10.20;;;4.73;;
11616;SDS011;5864;52.998;9.068;2022-08-19T06:34:23;6.00;;;4.40;;
11616;SDS011;5864;52.998;9.068;2022-08-19T06:36:52;6.03;;;4.63;;
11616;SDS011;5864;52.998;9.068;2022-08-19T06:39:23;4.43;;;3.67;;
11616;SDS011;5864;52.998;9.068;2022-08-19T06:41:54;5.00;;;4.00;;
11616;SDS011;5864;52.998;9.068;2022-08-19T06:44:24;6.17;;;4.73;;
11616;SDS011;5864;52.998;9.068;2022-08-19T06:46:52;6.10;;;4.00;;
11616;SDS011;5864;52.998;9.068;2022-08-19T06:49:20;5.50;;;4.00;;
11616;SDS011;5864;52.998;9.068;2022-08-19T06:51:49;6.13;;;4.67;;
11616;SDS011;5864;52.998;9.068;2022-08-19T06:54:17;7.20;;;4.83;;
11616;SDS011;5864;52.998;9.068;2022-08-19T06:56:47;6.90;;;4.33;;
11616;SDS011;5864;52.998;9.068;2022-08-19T06:59:15;5.97;;;4.47;;
11616;SDS011;5864;52.998;9.068;2022-08-19T07:01:45;5.03;;;4.50;;
11616;SDS011;5864;52.998;9.068;2022-08-19T07:04:14;5.43;;;4.77;;
11616;SDS011;5864;52.998;9.068;2022-08-19T07:06:43;4.93;;;4.30;;
11616;SDS011;5864;52.998;9.068;2022-08-19T07:09:12;6.60;;;4.93;;
11616;SDS011;5864;52.998;9.068;2022-08-19T07:11:43;5.80;;;4.77;;
11616;SDS011;5864;52.998;9.068;2022-08-19T07:14:13;5.27;;;4.70;;
11616;SDS011;5864;52.998;9.068;2022-08-19T07:16:43;6.30;;;5.17;;
11616;SDS011;5864;52.998;9.068;2022-08-19T07:19:12;6.00;;;4.90;;
11616;SDS011;5864;52.998;9.068;2022-08-19T07:21:40;6.30;;;5.70;;
11616;SDS011;5864;52.998;9.068;2022-08-19T07:24:08;6.37;;;5.77;;
11616;SDS011;5864;52.998;9.068;2022-08-19T07:26:38;7.03;;;6.20;;
11616;SDS011;5864;52.998;9.068;2022-08-19T07:29:07;6.13;;;5.60;;
11616;SDS011;5864;52.998;9.068;2022-08-19T07:31:37;8.37;;;7.57;;
11616;SDS011;5864;52.998;9.068;2022-08-19T07:34:05;7.70;;;6.37;;
11616;SDS011;5864;52.998;9.068;2022-08-19T07:36:35;6.47;;;5.60;;
11616;SDS011;5864;52.998;9.068;2022-08-19T07:39:05;8.87;;;6.30;;
11616;SDS011;5864;52.998;9.068;2022-08-19T07:41:35;6.53;;;5.67;;
11616;SDS011;5864;52.998;9.068;2022-08-19T07:44:03;6.73;;;5.10;;
11616;SDS011;5864;52.998;9.068;2022-08-19T07:46:30;6.23;;;5.27;;
11616;SDS011;5864;52.998;9.068;2022-08-19T07:49:00;6.93;;;5.70;;
11616;SDS011;5864;52.998;9.068;2022-08-19T07:51:28;6.47;;;4.63;;
11616;SDS011;5864;52.998;9.068;2022-08-19T07:53:59;6.30;;;4.63;;
11616;SDS011;5864;52.998;9.068;2022-08-19T07:56:26;4.30;;;3.83;;
11616;SDS011;5864;52.998;9.068;2022-08-19T07:58:54;4.50;;;4.10;;
11616;SDS011;5864;52.998;9.068;2022-08-19T08:01:22;6.17;;;4.70;;
11616;SDS011;5864;52.998;9.068;2022-08-19T08:03:53;4.43;;;3.97;;
11616;SDS011;5864;52.998;9.068;2022-08-19T08:06:41;5.90;;;4.63;;
11616;SDS011;5864;52.998;9.068;2022-08-19T08:09:36;4.87;;;4.33;;
11616;SDS011;5864;52.998;9.068;2022-08-19T08:12:08;6.33;;;4.33;;
11616;SDS011;5864;52.998;9.068;2022-08-19T08:14:38;4.20;;;3.67;;
11616;SDS011;5864;52.998;9.068;2022-08-19T08:17:09;4.67;;;3.93;;
11616;SDS011;5864;52.998;9.068;2022-08-19T08:19:38;4.13;;;3.30;;
11616;SDS011;5864;52.998;9.068;2022-08-19T08:22:08;4.07;;;3.13;;
11616;SDS011;5864;52.998;9.068;2022-08-19T08:25:00;3.83;;;2.97;;
11616;SDS011;5864;52.998;9.068;2022-08-19T08:27:28;3.50;;;3.00;;
11616;SDS011;5864;52.998;9.068;2022-08-19T08:29:56;2.83;;;2.63;;
11616;SDS011;5864;52.998;9.068;2022-08-19T08:32:24;4.20;;;3.07;;
11616;SDS011;5864;52.998;9.068;2022-08-19T08:34:52;3.43;;;3.13;;
11616;SDS011;5864;52.998;9.068;2022-08-19T08:37:21;2.53;;;2.30;;
11616;SDS011;5864;52.998;9.068;2022-08-19T08:39:49;4.63;;;2.33;;
11616;SDS011;5864;52.998;9.068;2022-08-19T08:42:19;2.80;;;2.50;;
11616;SDS011;5864;52.998;9.068;2022-08-19T08:44:56;4.13;;;3.30;;
11616;SDS011;5864;52.998;9.068;2022-08-19T08:47:26;3.30;;;2.97;;
11616;SDS011;5864;52.998;9.068;2022-08-19T08:49:59;3.30;;;3.07;;
11616;SDS011;5864;52.998;9.068;2022-08-19T08:52:33;2.63;;;2.40;;
11616;SDS011;5864;52.998;9.068;2022-08-19T08:55:05;3.03;;;2.73;;
11616;SDS011;5864;52.998;9.068;2022-08-19T08:57:36;3.30;;;3.00;;
11616;SDS011;5864;52.998;9.068;2022-08-19T09:00:12;3.17;;;2.90;;
11616;SDS011;5864;52.998;9.068;2022-08-19T09:02:43;3.63;;;3.27;;
11616;SDS011;5864;52.998;9.068;2022-08-19T09:05:11;2.90;;;2.60;;
11616;SDS011;5864;52.998;9.068;2022-08-19T09:07:41;3.20;;;2.90;;
11616;SDS011;5864;52.998;9.068;2022-08-19T09:10:19;3.13;;;2.50;;
11616;SDS011;5864;52.998;9.068;2022-08-19T09:12:53;3.60;;;3.10;;
11616;SDS011;5864;52.998;9.068;2022-08-19T09:15:29;4.03;;;3.20;;
11616;SDS011;5864;52.998;9.068;2022-08-19T09:18:01;4.37;;;3.97;;
11616;SDS011;5864;52.998;9.068;2022-08-19T09:20:29;4.33;;;3.20;;
11616;SDS011;5864;52.998;9.068;2022-08-19T09:22:59;4.40;;;4.00;;
11616;SDS011;5864;52.998;9.068;2022-08-19T09:25:26;3.83;;;3.53;;
11616;SDS011;5864;52.998;9.068;2022-08-19T09:27:56;4.90;;;3.50;;
11616;SDS011;5864;52.998;9.068;2022-08-19T09:30:28;3.43;;;2.90;;
11616;SDS011;5864;52.998;9.068;2022-08-19T09:32:57;3.37;;;3.03;;
11616;SDS011;5864;52.998;9.068;2022-08-19T09:35:26;3.77;;;3.47;;
11616;SDS011;5864;52.998;9.068;2022-08-19T09:37:55;4.37;;;3.80;;
11616;SDS011;5864;52.998;9.068;2022-08-19T09:40:25;3.80;;;3.47;;
11616;SDS011;5864;52.998;9.068;2022-08-19T09:42:53;4.77;;;3.43;;
11616;SDS011;5864;52.998;9.068;2022-08-19T09:45:23;4.50;;;4.10;;
11616;SDS011;5864;52.998;9.068;2022-08-19T09:47:51;5.40;;;3.47;;
11616;SDS011;5864;52.998;9.068;2022-08-19T09:50:19;3.00;;;2.70;;
11616;SDS011;5864;52.998;9.068;2022-08-19T09:52:48;3.60;;;2.73;;
11616;SDS011;5864;52.998;9.068;2022-08-19T09:55:15;5.10;;;3.47;;
11616;SDS011;5864;52.998;9.068;2022-08-19T09:57:44;3.83;;;3.10;;
11616;SDS011;5864;52.998;9.068;2022-08-19T10:00:12;2.30;;;2.10;;
11616;SDS011;5864;52.998;9.068;2022-08-19T10:02:40;4.10;;;2.77;;
11616;SDS011;5864;52.998;9.068;2022-08-19T10:05:07;3.17;;;2.87;;
11616;SDS011;5864;52.998;9.068;2022-08-19T10:07:52;3.53;;;2.73;;
11616;SDS011;5864;52.998;9.068;2022-08-19T10:10:20;3.30;;;2.70;;
11616;SDS011;5864;52.998;9.068;2022-08-19T10:12:49;3.73;;;3.33;;
11616;SDS011;5864;52.998;9.068;2022-08-19T10:15:16;2.43;;;2.23;;
11616;SDS011;5864;52.998;9.068;2022-08-19T10:17:46;2.37;;;2.17;;
11616;SDS011;5864;52.998;9.068;2022-08-19T10:20:13;3.60;;;3.13;;
11616;SDS011;5864;52.998;9.068;2022-08-19T10:22:40;2.77;;;2.50;;
11616;SDS011;5864;52.998;9.068;2022-08-19T10:25:09;3.73;;;3.33;;
11616;SDS011;5864;52.998;9.068;2022-08-19T10:27:36;4.37;;;3.10;;
11616;SDS011;5864;52.998;9.068;2022-08-19T10:30:06;3.27;;;2.97;;
11616;SDS011;5864;52.998;9.068;2022-08-19T10:32:35;4.10;;;2.60;;
11616;SDS011;5864;52.998;9.068;2022-08-19T10:35:03;2.40;;;2.20;;
11616;SDS011;5864;52.998;9.068;2022-08-19T10:37:33;4.43;;;3.30;;
11616;SDS011;5864;52.998;9.068;2022-08-19T10:40:03;4.03;;;3.30;;
11616;SDS011;5864;52.998;9.068;2022-08-19T10:42:33;4.13;;;3.40;;
11616;SDS011;5864;52.998;9.068;2022-08-19T10:45:01;3.47;;;3.17;;
11616;SDS011;5864;52.998;9.068;2022-08-19T10:47:30;5.67;;;3.37;;
11616;SDS011;5864;52.998;9.068;2022-08-19T10:49:58;3.93;;;3.20;;
11616;SDS011;5864;52.998;9.068;2022-08-19T10:52:43;4.50;;;2.63;;
11616;SDS011;5864;52.998;9.068;2022-08-19T10:55:13;2.50;;;2.13;;
11616;SDS011;5864;52.998;9.068;2022-08-19T10:57:58;2.73;;;2.30;;
11616;SDS011;5864;52.998;9.068;2022-08-19T11:00:26;4.43;;;2.30;;
11616;SDS011;5864;52.998;9.068;2022-08-19T11:02:56;2.27;;;2.00;;
11616;SDS011;5864;52.998;9.068;2022-08-19T11:05:23;2.00;;;1.90;;
11616;SDS011;5864;52.998;9.068;2022-08-19T11:07:50;2.03;;;1.80;;
11616;SDS011;5864;52.998;9.068;2022-08-19T11:10:18;5.73;;;2.70;;
11616;SDS011;5864;52.998;9.068;2022-08-19T11:12:46;3.73;;;2.60;;
11616;SDS011;5864;52.998;9.068;2022-08-19T11:15:13;3.87;;;2.20;;
11616;SDS011;5864;52.998;9.068;2022-08-19T11:17:42;3.37;;;2.30;;
11616;SDS011;5864;52.998;9.068;2022-08-19T11:20:11;3.83;;;2.53;;
11616;SDS011;5864;52.998;9.068;2022-08-19T11:22:41;2.50;;;1.83;;
11616;SDS011;5864;52.998;9.068;2022-08-19T11:25:09;2.60;;;2.00;;
11616;SDS011;5864;52.998;9.068;2022-08-19T11:27:38;3.90;;;2.40;;
11616;SDS011;5864;52.998;9.068;2022-08-19T11:30:08;2.03;;;1.77;;
11616;SDS011;5864;52.998;9.068;2022-08-19T11:32:37;4.33;;;1.90;;
11616;SDS011;5864;52.998;9.068;2022-08-19T11:35:05;2.70;;;1.83;;
11616;SDS011;5864;52.998;9.068;2022-08-19T11:37:35;1.80;;;1.70;;
11616;SDS011;5864;52.998;9.068;2022-08-19T11:40:04;2.47;;;2.10;;
11616;SDS011;5864;52.998;9.068;2022-08-19T11:42:32;2.37;;;1.77;;
11616;SDS011;5864;52.998;9.068;2022-08-19T11:45:17;1.97;;;1.77;;
11616;SDS011;5864;52.998;9.068;2022-08-19T11:47:45;4.13;;;1.57;;
11616;SDS011;5864;52.998;9.068;2022-08-19T11:50:13;3.13;;;1.80;;
11616;SDS011;5864;52.998;9.068;2022-08-19T11:52:42;1.87;;;1.60;;
11616;SDS011;5864;52.998;9.068;2022-08-19T11:55:10;3.47;;;1.40;;
11616;SDS011;5864;52.998;9.068;2022-08-19T11:57:38;3.00;;;1.57;;
11616;SDS011;5864;52.998;9.068;2022-08-19T12:00:06;1.73;;;1.27;;
11616;SDS011;5864;52.998;9.068;2022-08-19T12:02:35;2.23;;;1.30;;
11616;SDS011;5864;52.998;9.068;2022-08-19T12:05:03;2.17;;;1.30;;
11616;SDS011;5864;52.998;9.068;2022-08-19T12:07:32;2.67;;;1.23;;
11616;SDS011;5864;52.998;9.068;2022-08-19T12:10:01;1.70;;;1.20;;
11616;SDS011;5864;52.998;9.068;2022-08-19T12:12:28;2.17;;;1.40;;
11616;SDS011;5864;52.998;9.068;2022-08-19T12:14:56;2.80;;;1.40;;
11616;SDS011;5864;52.998;9.068;2022-08-19T12:17:24;1.23;;;1.10;;
11616;SDS011;5864;52.998;9.068;2022-08-19T12:19:53;1.73;;;1.23;;
11616;SDS011;5864;52.998;9.068;2022-08-19T12:22:20;2.23;;;1.27;;
11616;SDS011;5864;52.998;9.068;2022-08-19T12:24:48;1.20;;;1.10;;
11616;SDS011;5864;52.998;9.068;2022-08-19T12:27:19;2.30;;;1.20;;
11616;SDS011;5864;52.998;9.068;2022-08-19T12:29:46;1.20;;;1.10;;
11616;SDS011;5864;52.998;9.068;2022-08-19T12:32:14;1.40;;;1.17;;
11616;SDS011;5864;52.998;9.068;2022-08-19T12:34:42;1.30;;;1.20;;
11616;SDS011;5864;52.998;9.068;2022-08-19T12:37:12;1.57;;;1.10;;
11616;SDS011;5864;52.998;9.068;2022-08-19T12:39:40;1.30;;;1.20;;
11616;SDS011;5864;52.998;9.068;2022-08-19T12:42:09;1.50;;;1.20;;
11616;SDS011;5864;52.998;9.068;2022-08-19T12:44:39;2.20;;;1.30;;
11616;SDS011;5864;52.998;9.068;2022-08-19T12:47:08;1.80;;;1.70;;
11616;SDS011;5864;52.998;9.068;2022-08-19T12:49:37;1.27;;;1.17;;
11616;SDS011;5864;52.998;9.068;2022-08-19T12:52:05;1.30;;;1.20;;
11616;SDS011;5864;52.998;9.068;2022-08-19T12:54:34;1.90;;;1.37;;
11616;SDS011;5864;52.998;9.068;2022-08-19T12:57:04;1.20;;;1.10;;
11616;SDS011;5864;52.998;9.068;2022-08-19T12:59:33;1.10;;;1.00;;
11616;SDS011;5864;52.998;9.068;2022-08-19T13:02:03;1.73;;;1.20;;
11616;SDS011;5864;52.998;9.068;2022-08-19T13:04:31;2.00;;;1.10;;
11616;SDS011;5864;52.998;9.068;2022-08-19T13:07:01;2.87;;;1.10;;
11616;SDS011;5864;52.998;9.068;2022-08-19T13:09:29;1.10;;;1.00;;
11616;SDS011;5864;52.998;9.068;2022-08-19T13:11:57;1.20;;;1.10;;
11616;SDS011;5864;52.998;9.068;2022-08-19T13:14:25;1.23;;;0.97;;
11616;SDS011;5864;52.998;9.068;2022-08-19T13:16:53;1.20;;;1.10;;
11616;SDS011;5864;52.998;9.068;2022-08-19T13:19:21;1.67;;;1.00;;
11616;SDS011;5864;52.998;9.068;2022-08-19T13:21:50;3.90;;;1.20;;
11616;SDS011;5864;52.998;9.068;2022-08-19T13:24:17;1.30;;;1.10;;
11616;SDS011;5864;52.998;9.068;2022-08-19T13:26:45;1.13;;;1.00;;
11616;SDS011;5864;52.998;9.068;2022-08-19T13:29:13;1.40;;;1.30;;
11616;SDS011;5864;52.998;9.068;2022-08-19T13:31:58;1.37;;;1.00;;
11616;SDS011;5864;52.998;9.068;2022-08-19T13:34:44;1.40;;;1.00;;
11616;SDS011;5864;52.998;9.068;2022-08-19T13:37:12;1.20;;;1.00;;
11616;SDS011;5864;52.998;9.068;2022-08-19T13:39:39;1.80;;;1.03;;
11616;SDS011;5864;52.998;9.068;2022-08-19T13:42:07;1.10;;;1.00;;
11616;SDS011;5864;52.998;9.068;2022-08-19T13:44:35;1.13;;;1.03;;
11616;SDS011;5864;52.998;9.068;2022-08-19T13:47:04;1.13;;;1.03;;
11616;SDS011;5864;52.998;9.068;2022-08-19T13:49:33;1.30;;;1.20;;
11616;SDS011;5864;52.998;9.068;2022-08-19T13:52:03;1.77;;;1.13;;
11616;SDS011;5864;52.998;9.068;2022-08-19T13:54:32;2.20;;;1.00;;
11616;SDS011;5864;52.998;9.068;2022-08-19T13:56:59;2.77;;;1.27;;
11616;SDS011;5864;52.998;9.068;2022-08-19T13:59:27;1.50;;;1.10;;
11616;SDS011;5864;52.998;9.068;2022-08-19T14:01:57;1.87;;;1.20;;
11616;SDS011;5864;52.998;9.068;2022-08-19T14:04:25;1.40;;;0.90;;
11616;SDS011;5864;52.998;9.068;2022-08-19T14:06:52;2.30;;;1.00;;
11616;SDS011;5864;52.998;9.068;2022-08-19T14:09:21;1.90;;;1.10;;
11616;SDS011;5864;52.998;9.068;2022-08-19T14:11:49;1.83;;;1.20;;
11616;SDS011;5864;52.998;9.068;2022-08-19T14:14:17;1.63;;;0.90;;
11616;SDS011;5864;52.998;9.068;2022-08-19T14:16:44;1.53;;;1.20;;
11616;SDS011;5864;52.998;9.068;2022-08-19T14:19:11;3.60;;;1.40;;
11616;SDS011;5864;52.998;9.068;2022-08-19T14:21:39;1.17;;;1.00;;
11616;SDS011;5864;52.998;9.068;2022-08-19T14:24:07;1.30;;;1.10;;
11616;SDS011;5864;52.998;9.068;2022-08-19T14:26:36;1.40;;;1.30;;
11616;SDS011;5864;52.998;9.068;2022-08-19T14:29:04;1.20;;;1.10;;
11616;SDS011;5864;52.998;9.068;2022-08-19T14:31:31;1.63;;;1.13;;
11616;SDS011;5864;52.998;9.068;2022-08-19T14:33:59;1.20;;;1.10;;
11616;SDS011;5864;52.998;9.068;2022-08-19T14:36:26;1.47;;;1.00;;
11616;SDS011;5864;52.998;9.068;2022-08-19T14:38:54;2.17;;;1.20;;
11616;SDS011;5864;52.998;9.068;2022-08-19T14:41:23;1.40;;;0.83;;
11616;SDS011;5864;52.998;9.068;2022-08-19T14:43:53;0.93;;;0.90;;
11616;SDS011;5864;52.998;9.068;2022-08-19T14:46:22;0.70;;;0.70;;
11616;SDS011;5864;52.998;9.068;2022-08-19T14:48:51;2.27;;;0.90;;
11616;SDS011;5864;52.998;9.068;2022-08-19T14:51:19;0.90;;;0.67;;
11616;SDS011;5864;52.998;9.068;2022-08-19T14:53:48;0.60;;;0.60;;
11616;SDS011;5864;52.998;9.068;2022-08-19T14:56:17;1.23;;;1.00;;
11616;SDS011;5864;52.998;9.068;2022-08-19T14:58:46;1.80;;;0.83;;
11616;SDS011;5864;52.998;9.068;2022-08-19T15:01:18;0.97;;;0.80;;
11616;SDS011;5864;52.998;9.068;2022-08-19T15:03:47;2.00;;;1.00;;
11616;SDS011;5864;52.998;9.068;2022-08-19T15:06:18;1.00;;;0.90;;
11616;SDS011;5864;52.998;9.068;2022-08-19T15:08:46;0.80;;;0.80;;
11616;SDS011;5864;52.998;9.068;2022-08-19T15:11:15;1.07;;;1.00;;